Time;durP1;ratioP1;P1;durP2;ratioP2;P2;SDS_P1;SDS_P2;PMS_P1;PMS_P2;Temp;Humidity;BMP_temperature;BMP_pressure;BME280_temperature;BME280_humidity;BME280_pressure;Samples;Min_cycle;Max_cycle;Signal;HPM_P1;HPM_P2
2022/10/01 00:02:17;;;;;;;16.82;14.93;;;;;;;16.17;100.00;99609.95;1745574;81;21041;-49
2022/10/01 00:04:44;;;;;;;15.88;14.25;;;;;;;16.16;100.00;99604.17;1746207;80;21056;-49
2022/10/01 00:07:13;;;;;;;17.02;13.50;;;;;;;16.15;100.00;99603.79;1778993;79;21069;-49
2022/10/01 00:09:38;;;;;;;15.08;13.58;;;;;;;16.13;100.00;99605.74;1778013;78;21096;-49
2022/10/01 00:12:06;;;;;;;15.53;13.95;;;;;;;16.12;100.00;99606.23;1776568;78;22886;-49
2022/10/01 00:14:33;;;;;;;13.43;12.13;;;;;;;16.12;100.00;99602.64;1746436;80;21048;-49
2022/10/01 00:17:00;;;;;;;14.40;13.10;;;;;;;16.11;100.00;99604.49;1737086;80;21104;-49
2022/10/01 00:19:26;;;;;;;15.23;12.07;;;;;;;16.09;100.00;99602.86;1742414;80;21062;-49
2022/10/01 00:21:53;;;;;;;13.65;11.25;;;;;;;16.08;100.00;99602.48;1743120;80;21010;-49
2022/10/01 00:24:19;;;;;;;14.60;12.40;;;;;;;16.06;100.00;99597.67;1745940;80;21766;-49
2022/10/01 00:26:46;;;;;;;13.20;11.18;;;;;;;16.04;100.00;99596.91;1746854;80;21333;-49
2022/10/01 00:29:13;;;;;;;12.33;11.03;;;;;;;16.03;100.00;99596.53;1745423;80;21048;-49
2022/10/01 00:31:41;;;;;;;11.15;10.15;;;;;;;16.00;100.00;99600.81;1741835;80;21010;-48
2022/10/01 00:34:09;;;;;;;10.28;9.38;;;;;;;15.97;100.00;99592.42;1743404;80;21005;-49
2022/10/01 00:36:35;;;;;;;10.60;9.70;;;;;;;15.95;100.00;99591.66;1750389;78;21894;-49
2022/10/01 00:39:01;;;;;;;10.23;9.20;;;;;;;15.93;100.00;99596.33;1775964;78;20955;-49
2022/10/01 00:41:30;;;;;;;9.58;8.63;;;;;;;15.91;100.00;99604.23;1771240;79;20984;-49
2022/10/01 00:44:01;;;;;;;8.53;7.70;;;;;;;15.87;100.00;99596.29;1763514;78;21387;-51
2022/10/01 00:46:43;;;;;;;10.70;8.40;;;;;;;15.84;100.00;99600.58;1743575;80;21835;-49
2022/10/01 00:49:18;;;;;;;8.48;7.67;;;;;;;15.82;100.00;99594.38;1740876;80;21841;-52
2022/10/01 00:51:51;;;;;;;9.20;8.25;;;;;;;15.79;100.00;99597.83;1738886;80;21465;-49
2022/10/01 00:54:29;;;;;;;9.73;8.35;;;;;;;15.77;100.00;99604.71;1759610;79;20970;-49
2022/10/01 00:56:57;;;;;;;8.83;6.35;;;;;;;15.74;100.00;99604.05;1772127;79;21032;-49
2022/10/01 00:59:23;;;;;;;14.53;7.58;;;;;;;15.73;100.00;99609.12;1769826;79;21139;-49
2022/10/01 01:01:49;;;;;;;7.53;6.92;;;;;;;15.71;100.00;99603.80;1744450;80;21856;-48
2022/10/01 01:04:16;;;;;;;7.40;6.70;;;;;;;15.67;100.00;99599.56;1743271;81;21102;-49
2022/10/01 01:06:54;;;;;;;7.28;6.65;;;;;;;15.65;100.00;99606.09;1743796;80;22426;-49
2022/10/01 01:09:17;;;;;;;6.42;5.50;;;;;;;15.61;100.00;99603.20;1744808;80;21103;-49
2022/10/01 01:11:51;;;;;;;6.90;6.17;;;;;;;15.61;100.00;99595.06;1738290;80;22101;-49
2022/10/01 01:14:26;;;;;;;7.17;5.37;;;;;;;15.60;100.00;99593.33;1737425;80;21766;-49
2022/10/01 01:16:57;;;;;;;7.28;5.25;;;;;;;15.57;100.00;99586.78;1738695;80;21171;-49
2022/10/01 01:19:48;;;;;;;4.47;4.08;;;;;;;15.55;100.00;99595.02;1743095;80;21040;-49
2022/10/01 01:22:15;;;;;;;5.83;3.72;;;;;;;15.52;100.00;99587.06;1742609;80;21238;-49
2022/10/01 01:24:58;;;;;;;5.20;4.80;;;;;;;15.50;100.00;99591.72;1739216;80;21463;-48
2022/10/01 01:27:36;;;;;;;4.72;4.30;;;;;;;15.47;100.00;99587.41;1747298;79;21918;-48
2022/10/01 01:30:13;;;;;;;4.33;3.90;;;;;;;15.46;100.00;99594.29;1770219;79;21025;-49
2022/10/01 01:32:45;;;;;;;5.25;4.15;;;;;;;15.43;100.00;99594.00;1742118;80;22273;-49
2022/10/01 01:35:30;;;;;;;5.28;3.47;;;;;;;15.41;100.00;99603.22;1737946;80;21088;-49
2022/10/01 01:37:57;;;;;;;4.92;3.75;;;;;;;15.37;100.00;99606.65;1740430;80;21515;-49
2022/10/01 01:40:24;;;;;;;3.90;3.60;;;;;;;15.34;100.00;99605.50;1742551;80;21822;-49
2022/10/01 01:42:52;;;;;;;5.53;4.95;;;;;;;15.30;100.00;99605.35;1745837;80;21030;-48
2022/10/01 01:45:23;;;;;;;8.45;5.42;;;;;;;15.24;100.00;99609.82;1746399;80;21082;-47
2022/10/01 01:47:49;;;;;;;11.20;6.15;;;;;;;15.18;100.00;99604.83;1744536;81;21771;-47
2022/10/01 01:50:15;;;;;;;6.85;5.15;;;;;;;15.09;100.00;99603.63;1719184;80;21116;-48
2022/10/01 01:52:42;;;;;;;6.80;5.40;;;;;;;15.03;100.00;99611.32;1741922;81;21826;-46
2022/10/01 01:55:08;;;;;;;7.62;4.65;;;;;;;14.96;100.00;99612.72;1740390;80;21048;-48
2022/10/01 01:57:40;;;;;;;9.98;4.53;;;;;;;14.88;100.00;99611.89;1759096;79;21018;-47
2022/10/01 02:00:09;;;;;;;5.65;4.15;;;;;;;14.83;100.00;99608.60;1774070;78;21081;-49
2022/10/01 02:02:36;;;;;;;9.28;5.78;;;;;;;14.80;100.00;99606.09;1769399;79;21114;-46
2022/10/01 02:05:14;;;;;;;9.45;4.42;;;;;;;14.76;100.00;99611.35;1770263;79;22432;-48
2022/10/01 02:08:17;;;;;;;5.75;4.05;;;;;;;14.75;100.00;99610.97;1774331;79;21080;-48
2022/10/01 02:11:14;;;;;;;8.48;3.65;;;;;;;14.72;100.00;99617.94;1742577;80;21076;-47
2022/10/01 02:14:01;;;;;;;7.53;3.02;;;;;;;14.68;100.00;99621.36;1773652;79;21140;-46
2022/10/01 02:16:54;;;;;;;2.55;2.35;;;;;;;14.66;100.00;99615.64;1734264;79;21053;-46
2022/10/01 02:19:46;;;;;;;2.55;1.70;;;;;;;14.64;100.00;99613.52;1757645;79;21872;-47
2022/10/01 02:22:22;;;;;;;3.33;1.70;;;;;;;14.63;100.00;99619.94;1762149;79;21136;-46
2022/10/01 02:24:56;;;;;;;1.65;1.22;;;;;;;14.62;100.00;99612.78;1766572;79;21073;-49
2022/10/01 02:27:33;;;;;;;5.08;1.90;;;;;;;14.62;100.00;99615.00;1779995;78;21064;-47
2022/10/01 02:30:06;;;;;;;2.95;1.32;;;;;;;14.64;100.00;99619.81;1772592;79;21127;-47
2022/10/01 02:32:33;;;;;;;2.20;1.65;;;;;;;14.65;100.00;99616.12;1747556;80;21907;-47
2022/10/01 02:35:01;;;;;;;2.75;1.67;;;;;;;14.66;100.00;99615.64;1746518;80;21499;-46
2022/10/01 02:37:27;;;;;;;2.65;1.35;;;;;;;14.68;100.00;99619.13;1739328;80;21070;-47
2022/10/01 02:39:54;;;;;;;3.47;1.82;;;;;;;14.70;100.00;99622.61;1744130;79;21712;-47
2022/10/01 02:42:21;;;;;;;4.67;1.47;;;;;;;14.72;100.00;99631.48;1743449;80;21123;-49
2022/10/01 02:44:47;;;;;;;2.45;1.57;;;;;;;14.73;100.00;99622.38;1743640;80;21992;-47
2022/10/01 02:47:33;;;;;;;2.40;1.45;;;;;;;14.74;100.00;99622.28;1744880;80;21100;-47
2022/10/01 02:50:00;;;;;;;2.95;1.30;;;;;;;14.76;100.00;99616.77;1746398;80;21080;-47
2022/10/01 02:52:53;;;;;;;2.70;1.65;;;;;;;14.78;100.00;99622.09;1746846;80;21430;-47
2022/10/01 02:55:27;;;;;;;2.35;1.00;;;;;;;14.79;100.00;99620.64;1748408;79;21005;-47
2022/10/01 02:57:54;;;;;;;2.67;1.10;;;;;;;14.82;100.00;99613.64;1747557;80;21821;-48
2022/10/01 03:00:21;;;;;;;2.58;1.17;;;;;;;14.83;100.00;99612.67;1741901;79;21738;-48
2022/10/01 03:02:48;;;;;;;3.87;1.00;;;;;;;14.84;100.00;99627.09;1754893;79;21127;-48
2022/10/01 03:05:15;;;;;;;1.77;0.90;;;;;;;14.86;100.00;99626.51;1771258;79;21081;-46
2022/10/01 03:07:43;;;;;;;4.10;1.65;;;;;;;14.86;100.00;99630.09;1772820;79;20981;-48
2022/10/01 03:10:10;;;;;;;2.62;1.10;;;;;;;14.86;100.00;99631.44;1744701;80;22499;-47
2022/10/01 03:12:36;;;;;;;4.30;0.90;;;;;;;14.87;100.00;99631.83;1775455;78;21017;-47
2022/10/01 03:15:03;;;;;;;1.10;0.95;;;;;;;14.88;100.00;99638.98;1778488;78;20986;-49
2022/10/01 03:17:30;;;;;;;1.80;1.10;;;;;;;14.89;100.00;99637.12;1775875;78;21939;-48
2022/10/01 03:19:56;;;;;;;1.47;1.17;;;;;;;14.89;100.00;99632.56;1778406;78;20997;-48
2022/10/01 03:22:23;;;;;;;1.95;1.20;;;;;;;14.90;100.00;99641.09;1787706;78;21742;-47
2022/10/01 03:24:50;;;;;;;2.60;0.90;;;;;;;14.91;100.00;99642.83;1775967;78;20977;-47
2022/10/01 03:27:18;;;;;;;1.82;0.95;;;;;;;14.91;100.00;99636.53;1782535;78;20950;-48
2022/10/01 03:29:44;;;;;;;3.15;1.10;;;;;;;14.92;100.00;99643.21;1751839;80;20970;-48
2022/10/01 03:32:10;;;;;;;1.30;1.00;;;;;;;14.92;100.00;99629.66;1767540;79;21615;-48
2022/10/01 03:34:38;;;;;;;1.92;1.10;;;;;;;14.92;100.00;99628.30;1765133;79;21859;-46
2022/10/01 03:37:04;;;;;;;2.75;1.00;;;;;;;14.93;100.00;99630.53;1784215;78;21044;-47
2022/10/01 03:39:30;;;;;;;2.05;1.40;;;;;;;14.93;100.00;99634.11;1747538;80;21963;-49
2022/10/01 03:41:57;;;;;;;2.70;1.15;;;;;;;14.93;100.00;99635.47;1749019;80;21056;-47
2022/10/01 03:44:23;;;;;;;2.70;1.00;;;;;;;14.93;100.00;99635.47;1773614;78;21048;-47
2022/10/01 03:46:50;;;;;;;1.17;1.05;;;;;;;14.93;100.00;99640.02;1776207;78;21957;-47
2022/10/01 03:49:17;;;;;;;1.67;0.90;;;;;;;14.94;100.00;99644.47;1763512;80;21087;-48
2022/10/01 03:51:44;;;;;;;1.95;1.02;;;;;;;14.94;100.00;99636.34;1756208;79;21403;-48
2022/10/01 03:54:10;;;;;;;1.02;0.90;;;;;;;14.93;100.00;99643.59;1753704;80;21082;-47
2022/10/01 03:56:39;;;;;;;1.90;1.02;;;;;;;14.93;100.00;99639.53;1756935;79;21067;-47
2022/10/01 03:59:05;;;;;;;2.77;1.10;;;;;;;14.94;100.00;99644.47;1758230;80;21843;-46
2022/10/01 04:01:32;;;;;;;3.05;1.30;;;;;;;14.93;100.00;99657.15;1751010;80;21060;-47
2022/10/01 04:04:00;;;;;;;2.37;1.05;;;;;;;14.91;100.00;99645.53;1756323;80;21056;-48
2022/10/01 04:06:26;;;;;;;2.95;1.00;;;;;;;14.92;100.00;99652.70;1757432;80;21040;-47
2022/10/01 04:08:53;;;;;;;1.05;0.93;;;;;;;14.91;100.00;99648.25;1755359;80;21588;-47
2022/10/01 04:14:01;;;;;;;1.10;0.95;;;;;;;14.93;100.00;99631.89;1846510;75;29324;-51
2022/10/01 04:16:27;;;;;;;3.00;1.12;;;;;;;14.90;98.26;99638.86;1821435;77;21040;-47
2022/10/01 04:18:54;;;;;;;4.00;1.10;;;;;;;14.90;99.04;99642.92;1814799;77;21829;-47
2022/10/01 04:21:21;;;;;;;2.42;1.00;;;;;;;14.89;99.58;99643.89;1814849;77;21009;-49
2022/10/01 04:23:48;;;;;;;3.65;0.90;;;;;;;14.87;100.00;99641.31;1815788;77;21009;-48
2022/10/01 04:26:17;;;;;;;2.35;0.98;;;;;;;14.88;100.00;99649.83;1817535;77;21024;-46
2022/10/01 04:28:45;;;;;;;1.10;0.80;;;;;;;14.88;100.00;99651.67;1820721;77;21024;-47
2022/10/01 04:31:24;;;;;;;0.88;0.72;;;;;;;14.88;100.00;99657.95;1814752;77;21916;-47
2022/10/01 04:33:56;;;;;;;0.90;0.78;;;;;;;14.89;100.00;99658.31;1812802;77;21029;-48
2022/10/01 04:38:14;;;;;;;2.02;1.50;;;;;;;14.90;100.00;99649.22;1795792;78;29541;-47
2022/10/01 04:40:41;;;;;;;3.33;0.88;;;;;;;14.90;97.46;99660.05;1766687;78;21064;-48
2022/10/01 04:43:08;;;;;;;1.20;1.10;;;;;;;14.92;98.18;99659.47;1765323;79;21860;-47
2022/10/01 04:45:37;;;;;;;1.00;0.90;;;;;;;14.92;98.67;99649.98;1768767;79;21683;-48
2022/10/01 04:48:04;;;;;;;1.27;1.10;;;;;;;14.92;99.07;99658.60;1770239;79;21037;-47
2022/10/01 04:50:30;;;;;;;1.92;0.85;;;;;;;14.90;99.39;99658.70;1769641;79;21049;-47
2022/10/01 04:52:57;;;;;;;2.62;0.93;;;;;;;14.90;99.68;99672.25;1758743;78;21035;-47
2022/10/01 04:55:24;;;;;;;1.15;0.95;;;;;;;14.91;99.94;99675.83;1771546;78;21955;-47
2022/10/01 04:57:50;;;;;;;1.02;0.90;;;;;;;14.92;100.00;99671.67;1748763;79;21085;-46
2022/10/01 05:00:20;;;;;;;1.50;0.90;;;;;;;14.92;100.00;99668.09;1732341;81;21504;-47
2022/10/01 05:02:49;;;;;;;8.48;1.00;;;;;;;14.93;100.00;99678.83;1741728;80;21087;-46
2022/10/01 05:05:16;;;;;;;1.98;1.00;;;;;;;14.92;100.00;99685.22;1709244;81;21049;-47
2022/10/01 05:07:43;;;;;;;3.27;1.00;;;;;;;14.92;100.00;99685.70;1717073;81;21843;-47
2022/10/01 05:10:16;;;;;;;1.52;0.90;;;;;;;14.91;100.00;99688.02;1676457;83;21152;-47
2022/10/01 05:12:45;;;;;;;2.00;0.80;;;;;;;14.92;100.00;99687.06;1686428;83;21056;-47
2022/10/01 05:15:12;;;;;;;3.95;0.98;;;;;;;14.95;100.00;99683.67;1708193;81;21049;-49
2022/10/01 05:17:38;;;;;;;1.15;0.90;;;;;;;15.02;100.00;99688.19;1675916;83;21113;-48
2022/10/01 05:20:07;;;;;;;3.92;0.90;;;;;;;15.11;100.00;99687.56;1692057;83;21847;-48
2022/10/01 05:22:33;;;;;;;0.90;0.80;;;;;;;15.23;100.00;99691.27;1685306;83;21112;-47
2022/10/01 05:25:01;;;;;;;2.80;0.80;;;;;;;15.36;100.00;99688.98;1688288;82;21102;-50
2022/10/01 05:27:27;;;;;;;1.25;0.93;;;;;;;15.55;100.00;99691.82;1693080;84;21042;-48
2022/10/01 05:29:55;;;;;;;3.47;0.90;;;;;;;15.73;100.00;99695.97;1690259;83;21069;-48
2022/10/01 05:32:21;;;;;;;1.62;0.90;;;;;;;15.88;100.00;99701.17;1689512;83;21847;-48
2022/10/01 05:34:47;;;;;;;2.90;0.90;;;;;;;16.02;100.00;99698.83;1688904;83;21064;-48
2022/10/01 05:37:14;;;;;;;1.17;0.90;;;;;;;16.16;99.84;99700.05;1681398;83;21449;-47
2022/10/01 05:39:41;;;;;;;2.77;1.45;;;;;;;16.30;99.70;99698.20;1668734;84;21703;-49
2022/10/01 05:42:07;;;;;;;1.05;0.80;;;;;;;16.39;99.61;99692.97;1708388;81;21105;-47
2022/10/01 05:44:36;;;;;;;1.35;1.22;;;;;;;16.48;99.51;99688.72;1708257;81;22824;-47
2022/10/01 05:47:05;;;;;;;2.58;1.00;;;;;;;16.56;99.48;99687.17;1713442;81;21323;-49
2022/10/01 05:49:32;;;;;;;2.77;1.00;;;;;;;16.63;99.39;99688.97;1722898;81;21080;-50
2022/10/01 05:51:59;;;;;;;2.05;0.90;;;;;;;16.69;99.35;99693.07;1706945;81;21080;-47
2022/10/01 05:54:29;;;;;;;2.85;1.00;;;;;;;16.74;99.33;99689.54;1706891;81;21564;-47
2022/10/01 05:56:57;;;;;;;1.15;0.80;;;;;;;16.79;99.29;99685.97;1713280;81;21927;-48
2022/10/01 05:59:23;;;;;;;1.52;0.90;;;;;;;16.84;99.24;99679.72;1705695;81;21046;-48
2022/10/01 06:01:49;;;;;;;1.87;0.80;;;;;;;16.89;99.24;99687.02;1706616;81;21109;-48
2022/10/01 06:04:16;;;;;;;1.20;0.80;;;;;;;16.90;99.25;99685.56;1708668;82;21548;-48
2022/10/01 06:06:43;;;;;;;2.22;0.75;;;;;;;16.93;99.23;99684.44;1710129;81;21073;-48
2022/10/01 06:09:09;;;;;;;4.03;1.90;;;;;;;16.95;99.22;99686.55;1705365;81;21949;-47
2022/10/01 06:11:40;;;;;;;5.10;1.20;;;;;;;16.96;99.24;99683.73;1708696;81;21114;-48
2022/10/01 06:14:07;;;;;;;2.25;0.90;;;;;;;17.01;99.19;99684.23;1708129;82;20990;-48
2022/10/01 06:16:33;;;;;;;0.85;0.70;;;;;;;17.06;99.15;99686.63;1709995;81;21017;-47
2022/10/01 06:19:00;;;;;;;1.35;0.78;;;;;;;17.11;99.13;99688.48;1705655;81;21023;-47
2022/10/01 06:21:26;;;;;;;2.12;0.88;;;;;;;17.14;99.13;99690.98;1712735;82;22443;-47
2022/10/01 06:23:52;;;;;;;0.68;0.65;;;;;;;17.17;99.11;99689.41;1706866;82;20978;-47
2022/10/01 06:26:19;;;;;;;2.17;1.00;;;;;;;17.22;99.05;99702.64;1709770;82;21022;-49
2022/10/01 06:28:49;;;;;;;2.35;0.80;;;;;;;17.27;99.02;99695.84;1704783;81;21061;-50
2022/10/01 06:31:17;;;;;;;1.60;0.80;;;;;;;17.34;98.98;99697.63;1713024;81;20966;-48
2022/10/01 06:33:44;;;;;;;0.93;0.82;;;;;;;17.39;98.92;99699.49;1707140;81;21776;-47
2022/10/01 06:36:11;;;;;;;1.52;1.20;;;;;;;17.42;98.92;99705.20;1708242;82;20998;-50
2022/10/01 06:38:38;;;;;;;1.20;0.90;;;;;;;17.44;98.88;99704.59;1735806;80;20970;-49
2022/10/01 06:41:04;;;;;;;2.00;0.90;;;;;;;17.50;98.83;99705.47;1737405;80;21511;-50
2022/10/01 06:43:32;;;;;;;2.85;1.20;;;;;;;17.55;98.80;99698.67;1729919;80;21069;-48
2022/10/01 06:46:03;;;;;;;2.10;1.15;;;;;;;17.60;98.78;99692.89;1732376;80;21869;-48
2022/10/01 06:48:30;;;;;;;1.77;1.40;;;;;;;17.66;98.72;99693.30;1730169;80;21108;-47
2022/10/01 06:50:57;;;;;;;3.75;1.07;;;;;;;17.72;98.66;99698.27;1736928;80;21061;-48
2022/10/01 06:53:23;;;;;;;2.35;1.20;;;;;;;17.81;98.57;99696.67;1736951;81;21649;-48
2022/10/01 06:55:50;;;;;;;1.60;1.50;;;;;;;17.90;98.48;99693.72;1735149;80;21043;-48
2022/10/01 06:58:20;;;;;;;2.47;1.30;;;;;;;17.98;98.41;99697.56;1730370;80;21955;-48
2022/10/01 07:00:47;;;;;;;1.37;1.20;;;;;;;18.04;98.34;99698.42;1734391;81;21088;-49
2022/10/01 07:03:19;;;;;;;2.10;0.90;;;;;;;18.08;98.31;99696.34;1731638;80;21068;-47
2022/10/01 07:05:48;;;;;;;3.08;1.10;;;;;;;18.11;98.30;99690.66;1733723;81;21038;-48
2022/10/01 07:08:14;;;;;;;1.10;1.00;;;;;;;18.16;98.22;99693.87;1733650;80;21021;-46
2022/10/01 07:10:43;;;;;;;1.92;0.90;;;;;;;18.24;98.19;99694.12;1731731;80;21928;-48
2022/10/01 07:13:15;;;;;;;0.98;0.88;;;;;;;18.30;98.12;99692.25;1730347;80;21089;-48
2022/10/01 07:15:43;;;;;;;1.30;0.80;;;;;;;18.36;98.07;99690.91;1731562;80;21076;-48
2022/10/01 07:18:10;;;;;;;0.60;0.50;;;;;;;18.42;98.02;99691.76;1736617;80;21106;-47
2022/10/01 07:20:39;;;;;;;1.17;0.60;;;;;;;18.49;97.95;99694.35;1735638;81;21531;-46
2022/10/01 07:23:10;;;;;;;0.60;0.55;;;;;;;18.58;97.87;99696.86;1732701;80;21905;-47
2022/10/01 07:25:38;;;;;;;0.40;0.30;;;;;;;18.64;97.82;99697.70;1735081;80;22117;-48
2022/10/01 07:28:06;;;;;;;1.37;0.50;;;;;;;18.71;97.76;99697.59;1735678;80;21006;-48
2022/10/01 07:30:33;;;;;;;2.98;0.40;;;;;;;18.78;97.67;99703.77;1734977;81;21044;-48
2022/10/01 07:33:00;;;;;;;0.80;0.40;;;;;;;18.85;97.62;99704.99;1731774;80;21083;-46
2022/10/01 07:35:27;;;;;;;0.60;0.55;;;;;;;18.92;97.59;99705.84;1730710;81;21883;-48
2022/10/01 07:37:54;;;;;;;1.50;0.50;;;;;;;18.96;97.56;99705.47;1730780;80;21054;-48
2022/10/01 07:40:20;;;;;;;0.53;0.50;;;;;;;19.00;97.51;99706.93;1729926;80;21038;-46
2022/10/01 07:42:56;;;;;;;0.50;0.50;;;;;;;19.06;97.48;99701.45;1726145;80;21109;-47
2022/10/01 07:45:23;;;;;;;1.37;0.50;;;;;;;19.14;97.42;99701.70;1727893;80;21451;-46
2022/10/01 07:47:54;;;;;;;0.50;0.50;;;;;;;19.19;97.37;99697.58;1727674;80;21791;-45
2022/10/01 07:50:21;;;;;;;0.70;0.50;;;;;;;19.23;97.34;99707.22;1725975;80;21112;-48
2022/10/01 07:52:55;;;;;;;0.60;0.40;;;;;;;19.26;97.31;99701.52;1728026;81;21057;-48
2022/10/01 07:55:25;;;;;;;0.40;0.40;;;;;;;19.26;97.30;99704.73;1721287;80;21299;-47
2022/10/01 07:57:52;;;;;;;0.40;0.40;;;;;;;19.22;97.37;99699.19;1727298;82;21041;-47
2022/10/01 08:00:19;;;;;;;2.20;0.47;;;;;;;19.17;97.40;99695.97;1725486;82;21941;-48
2022/10/01 08:02:47;;;;;;;0.90;0.50;;;;;;;19.12;97.46;99699.59;1720956;81;21560;-46
2022/10/01 08:05:16;;;;;;;0.45;0.30;;;;;;;19.07;97.51;99696.36;1726324;82;22232;-49
2022/10/01 08:07:45;;;;;;;1.87;0.40;;;;;;;19.05;97.55;99696.52;1724283;82;22579;-48
2022/10/01 08:10:13;;;;;;;0.70;0.50;;;;;;;19.06;97.54;99697.36;1724621;82;21727;-48
2022/10/01 08:12:43;;;;;;;0.50;0.50;;;;;;;19.10;97.51;99702.44;1727777;81;21813;-47
2022/10/01 08:15:11;;;;;;;3.83;0.53;;;;;;;19.14;97.47;99692.15;1726401;80;21088;-47
2022/10/01 08:17:39;;;;;;;0.72;0.50;;;;;;;19.17;97.46;99688.64;1731455;81;21116;-48
2022/10/01 08:20:07;;;;;;;0.70;0.60;;;;;;;19.20;97.45;99682.08;1724985;80;21140;-47
2022/10/01 08:22:34;;;;;;;1.25;0.60;;;;;;;19.21;97.46;99674.26;1728467;80;21125;-47
2022/10/01 08:25:01;;;;;;;0.70;0.60;;;;;;;19.20;97.47;99671.16;1724712;82;21713;-48
2022/10/01 08:27:27;;;;;;;1.85;0.50;;;;;;;19.21;97.46;99671.03;1724885;81;21141;-47
2022/10/01 08:29:54;;;;;;;0.57;0.40;;;;;;;19.23;97.44;99674.97;1724043;81;21055;-46
2022/10/01 08:32:22;;;;;;;0.30;0.30;;;;;;;19.26;97.40;99669.27;1724532;82;22444;-47
2022/10/01 08:34:48;;;;;;;0.40;0.30;;;;;;;19.30;97.40;99672.11;1726808;81;21104;-48
2022/10/01 08:37:15;;;;;;;2.10;0.30;;;;;;;19.36;97.29;99672.94;1723999;80;22545;-47
2022/10/01 08:39:41;;;;;;;0.40;0.37;;;;;;;19.44;97.21;99682.70;1731700;80;21496;-47
2022/10/01 08:42:33;;;;;;;0.40;0.30;;;;;;;19.56;97.11;99687.13;1732983;80;21092;-46
2022/10/01 08:45:03;;;;;;;1.20;0.28;;;;;;;19.69;97.02;99674.66;1733726;81;21095;-48
2022/10/01 08:47:34;;;;;;;0.20;0.20;;;;;;;19.85;96.90;99681.87;1709550;81;21183;-47
2022/10/01 08:50:13;;;;;;;0.25;0.20;;;;;;;19.93;96.85;99680.70;1738907;80;21933;-47
2022/10/01 08:52:45;;;;;;;0.20;0.20;;;;;;;20.00;96.79;99679.15;1731304;81;21049;-48
2022/10/01 08:55:21;;;;;;;0.20;0.10;;;;;;;20.08;96.74;99682.56;1734532;80;20994;-47
2022/10/01 08:57:52;;;;;;;1.02;0.20;;;;;;;20.15;96.70;99689.75;1733431;80;21364;-46
2022/10/01 09:00:19;;;;;;;0.30;0.20;;;;;;;20.14;96.70;99684.78;1736779;81;21513;-48
2022/10/01 09:02:45;;;;;;;4.12;0.20;;;;;;;20.12;96.70;99688.14;1735044;81;21768;-47
2022/10/01 09:05:42;;;;;;;1.62;0.20;;;;;;;20.11;96.72;99684.17;1733179;81;20994;-48
2022/10/01 09:08:51;;;;;;;0.20;0.10;;;;;;;20.10;96.74;99680.57;1740193;80;21361;-47
2022/10/01 09:11:35;;;;;;;0.20;0.20;;;;;;;20.08;96.74;99681.20;1731532;81;21391;-47
2022/10/01 09:14:16;;;;;;;0.47;0.10;;;;;;;20.08;96.72;99682.56;1733737;81;21481;-50
2022/10/01 09:17:05;;;;;;;0.20;0.10;;;;;;;20.12;96.72;99690.88;1731495;80;21469;-47
2022/10/01 09:19:55;;;;;;;0.47;0.20;;;;;;;20.18;96.68;99685.35;1731832;80;21010;-49
2022/10/01 09:22:30;;;;;;;0.30;0.20;;;;;;;20.25;96.64;99681.06;1737529;81;20977;-47
2022/10/01 09:25:12;;;;;;;0.60;0.20;;;;;;;20.23;96.66;99683.96;1707537;81;21890;-48
2022/10/01 09:27:38;;;;;;;2.20;0.15;;;;;;;20.22;96.67;99700.49;1732069;80;20992;-47
2022/10/01 09:30:20;;;;;;;0.30;0.20;;;;;;;20.21;96.67;99703.72;1732168;81;21758;-48
2022/10/01 09:33:01;;;;;;;0.10;0.10;;;;;;;20.25;96.68;99708.40;1724758;81;21132;-48
2022/10/01 09:35:55;;;;;;;0.10;0.10;;;;;;;20.28;96.64;99710.38;1737529;80;21018;-48
2022/10/01 09:38:40;;;;;;;1.22;0.10;;;;;;;20.28;96.63;99703.54;1724057;81;21063;-46
2022/10/01 09:41:08;;;;;;;0.10;0.10;;;;;;;20.31;96.61;99702.41;1727744;81;21066;-47
2022/10/01 09:43:37;;;;;;;0.10;0.10;;;;;;;20.33;96.63;99698.52;1737104;80;21826;-48
2022/10/01 09:46:11;;;;;;;0.50;0.30;;;;;;;20.31;96.63;99694.21;1731376;80;21650;-47
2022/10/01 09:48:45;;;;;;;0.30;0.17;;;;;;;20.30;96.63;99690.61;1730638;81;21045;-47
2022/10/01 09:51:26;;;;;;;1.32;0.17;;;;;;;20.33;96.63;99697.14;1731063;80;21582;-48
2022/10/01 09:54:07;;;;;;;0.33;0.10;;;;;;;20.30;96.63;99697.44;1734915;81;21100;-48
2022/10/01 09:56:47;;;;;;;0.72;0.30;;;;;;;20.27;96.73;99694.97;1725727;81;21791;-47
2022/10/01 09:59:25;;;;;;;2.70;0.20;;;;;;;20.26;96.71;99693.73;1713253;82;21765;-49
2022/10/01 10:01:54;;;;;;;0.20;0.20;;;;;;;20.26;96.72;99693.73;1729447;80;21044;-47
2022/10/01 10:04:24;;;;;;;0.57;0.20;;;;;;;20.26;96.74;99700.06;1727017;81;21470;-48
2022/10/01 10:06:58;;;;;;;0.33;0.20;;;;;;;20.30;96.73;99700.67;1730332;81;21844;-47
2022/10/01 10:09:31;;;;;;;0.57;0.10;;;;;;;20.33;96.70;99713.55;1728553;81;21845;-50
2022/10/01 10:11:58;;;;;;;6.80;0.57;;;;;;;20.38;96.67;99704.48;1733753;80;21560;-47
2022/10/01 10:14:37;;;;;;;0.50;0.30;;;;;;;20.45;96.62;99695.73;1735610;81;21057;-46
2022/10/01 10:17:06;;;;;;;0.10;0.10;;;;;;;20.50;96.58;99690.73;1727566;81;21102;-46
2022/10/01 10:19:34;;;;;;;2.42;0.20;;;;;;;20.57;96.56;99691.90;1736909;80;21092;-48
2022/10/01 10:22:13;;;;;;;0.10;0.10;;;;;;;20.61;96.50;99700.17;1727737;80;23050;-48
2022/10/01 10:24:40;;;;;;;0.42;0.20;;;;;;;20.63;96.51;99688.60;1727882;80;20980;-46
2022/10/01 10:27:21;;;;;;;0.20;0.10;;;;;;;20.67;96.46;99695.00;1727799;81;21135;-46
2022/10/01 10:29:47;;;;;;;0.20;0.13;;;;;;;20.72;96.46;99687.27;1733405;80;21048;-48
2022/10/01 10:32:22;;;;;;;1.00;0.10;;;;;;;20.75;96.44;99678.80;1727637;80;21102;-48
2022/10/01 10:34:49;;;;;;;4.72;0.20;;;;;;;20.77;96.42;99669.05;1735092;81;22380;-47
2022/10/01 10:37:20;;;;;;;1.55;0.10;;;;;;;20.77;96.41;99664.45;1730098;81;21706;-47
2022/10/01 10:39:51;;;;;;;1.05;0.20;;;;;;;20.78;96.41;99671.66;1724323;80;21053;-48
2022/10/01 10:42:18;;;;;;;0.28;0.20;;;;;;;20.77;96.42;99668.55;1730696;82;21068;-45
2022/10/01 10:44:48;;;;;;;0.20;0.20;;;;;;;20.74;96.45;99668.85;1727925;82;21112;-47
2022/10/01 10:47:17;;;;;;;1.15;0.20;;;;;;;20.72;96.47;99660.41;1728750;81;21821;-48
2022/10/01 10:50:04;;;;;;;0.35;0.20;;;;;;;20.72;96.46;99654.44;1730429;81;21084;-46
2022/10/01 10:52:35;;;;;;;0.42;0.30;;;;;;;20.72;96.47;99653.58;1724728;81;21056;-47
2022/10/01 10:55:21;;;;;;;1.35;0.30;;;;;;;20.70;96.47;99653.71;1726609;82;21032;-47
2022/10/01 10:57:47;;;;;;;1.40;0.20;;;;;;;20.70;96.47;99663.78;1727343;80;21340;-49
2022/10/01 11:00:28;;;;;;;0.78;0.20;;;;;;;20.67;96.49;99662.72;1732542;81;21945;-47
2022/10/01 11:03:02;;;;;;;0.20;0.20;;;;;;;20.61;96.56;99660.02;1724976;80;21053;-46
2022/10/01 11:05:35;;;;;;;1.37;0.25;;;;;;;20.55;96.59;99656.98;1727935;80;21642;-49
2022/10/01 11:08:06;;;;;;;0.20;0.20;;;;;;;20.51;96.58;99659.62;1725568;81;21454;-50
2022/10/01 11:11:11;;;;;;;1.20;0.30;;;;;;;20.48;96.62;99653.08;1733898;81;21084;-49
2022/10/01 11:13:48;;;;;;;3.30;0.30;;;;;;;20.46;96.63;99649.62;1726189;81;21828;-49
2022/10/01 11:17:04;;;;;;;0.62;0.55;;;;;;;20.46;96.63;99648.25;1728051;80;21056;-53
2022/10/01 11:19:56;;;;;;;1.75;0.30;;;;;;;20.43;96.66;99643.91;1727348;81;21633;-49
2022/10/01 11:22:51;;;;;;;0.30;0.30;;;;;;;20.38;96.66;99642.11;1729506;80;21900;-50
2022/10/01 11:25:31;;;;;;;0.50;0.30;;;;;;;20.34;96.72;99645.61;1726223;81;21099;-49
2022/10/01 11:28:18;;;;;;;0.68;0.20;;;;;;;20.29;96.75;99637.44;1724286;81;21809;-50
2022/10/01 11:31:06;;;;;;;2.25;0.30;;;;;;;20.24;96.79;99640.60;1726937;81;21084;-50
2022/10/01 11:33:56;;;;;;;0.30;0.20;;;;;;;20.17;96.85;99633.93;1729685;80;21183;-49
2022/10/01 11:36:43;;;;;;;1.37;0.30;;;;;;;20.11;96.90;99631.76;1727351;81;21555;-49
2022/10/01 11:39:13;;;;;;;1.32;0.30;;;;;;;20.05;96.95;99639.14;1726989;81;21052;-49
2022/10/01 11:41:51;;;;;;;0.53;0.30;;;;;;;20.01;96.97;99634.94;1726638;81;21947;-50
2022/10/01 11:44:23;;;;;;;0.42;0.20;;;;;;;19.94;97.06;99635.13;1735083;80;21322;-49
2022/10/01 11:46:57;;;;;;;0.40;0.30;;;;;;;19.90;97.08;99632.31;1731725;80;21599;-50
2022/10/01 11:49:27;;;;;;;;;;;;;;;19.87;97.10;99626.62;1715921;81;21005;-50
2022/10/01 11:52:08;;;;;;;0.88;0.20;;;;;;;19.85;97.16;99625.02;1739814;80;20154;-50
2022/10/01 11:54:38;;;;;;;0.37;0.20;;;;;;;19.81;97.19;99625.80;1735294;81;21769;-50